Flint Hill, Virginia
Current Conditions -  °F | °C
As of 10:35 AM on Friday 24 Oct 2014 (Local Time) from KFRR Reporting Station
Clear Clear  
Wind Chill: 57°   Ceiling: Unl
Heat Index: 57°   Visibility: 10mi
Dew Point: 41°   Wind: 3mph
Humidity: 55%   Direction: 230°SW
Pressure: 30.03"   Gusts: NA
Location:  38.76°N, 78.1°W
Report Text: KFRR 241435Z AUTO 23003KT 10SM CLR 14/05 A3003 RMK AO1
Loading
Personal Weather Stations






























Interactive Weather Map
Tropical Storm Tracking
New forecast layout! Learn more

10-Day Weather Forecast

Advertisements
Track Severe Weather on mobile